Irwin, Missouri
Current Conditions -  °F | °C
As of 5:15 PM on Monday 22 Dec 2014 (Local Time) from KPTS Reporting Station
Overcast Overcast  
Wind Chill: 51°   Ceiling: 3000
Heat Index: 51°   Visibility: 10mi
Dew Point: 51°   Wind: 5mph
Humidity: 100%   Direction: 260°W
Pressure: 29.52"   Gusts: NA
Location:  37.5121°N, 94.2674°W
Report Text: KPTS 222315Z AUTO 26004KT 10SM SCT025 BKN030 OVC050 11/11 A2952 RMK AO2 T01050106
Loading
Personal Weather Stations






























Interactive Weather Map New forecast layout! Learn more

10-Day Weather Forecast

Advertisements
Track Severe Weather on mobile